Time;durP1;ratioP1;P1;durP2;ratioP2;P2;SDS_P1;SDS_P2;PMS_P1;PMS_P2;Temp;Humidity;BMP_temperature;BMP_pressure;BME280_temperature;BME280_humidity;BME280_pressure;Samples;Min_cycle;Max_cycle;Signal;HPM_P1;HPM_P2
2023/10/12 00:01:58;;;;;;;18.07;6.17;;;15.60;99.90;;;;;;5047713;28;20461;-69
2023/10/12 00:04:35;;;;;;;14.40;5.20;;;15.60;99.90;;;;;;5048431;28;20517;-70
2023/10/12 00:07:14;;;;;;;12.33;5.13;;;15.50;99.90;;;;;;5049030;28;20442;-69
2023/10/12 00:09:47;;;;;;;13.90;5.67;;;15.50;99.90;;;;;;5048315;28;20527;-70
2023/10/12 00:12:16;;;;;;;18.40;6.73;;;15.60;99.90;;;;;;5048476;28;20529;-70
2023/10/12 00:14:44;;;;;;;14.07;5.80;;;15.60;99.90;;;;;;5048338;28;20477;-70
2023/10/12 00:17:12;;;;;;;15.50;6.10;;;15.50;99.90;;;;;;5048550;28;20448;-70
2023/10/12 00:19:41;;;;;;;13.03;5.27;;;15.50;99.90;;;;;;5048387;28;20482;-70
2023/10/12 00:22:11;;;;;;;19.13;7.37;;;15.60;99.90;;;;;;5048337;28;20439;-68
2023/10/12 00:24:40;;;;;;;14.20;6.20;;;15.40;99.90;;;;;;5048480;28;21284;-70
2023/10/12 00:27:09;;;;;;;14.50;5.73;;;15.30;99.90;;;;;;5048772;28;20532;-70
2023/10/12 00:29:39;;;;;;;13.67;6.83;;;15.20;99.90;;;;;;5048407;28;20450;-71
2023/10/12 00:32:07;;;;;;;14.97;5.33;;;15.20;99.90;;;;;;5048061;28;20573;-72
2023/10/12 00:34:36;;;;;;;14.13;5.67;;;15.20;99.90;;;;;;5048238;28;20558;-71
2023/10/12 00:37:07;;;;;;;19.30;5.40;;;15.20;99.90;;;;;;5048161;28;20459;-70
2023/10/12 00:39:46;;;;;;;20.23;5.87;;;15.20;99.90;;;;;;5048791;28;20807;-70
2023/10/12 00:42:18;;;;;;;15.37;6.13;;;15.30;99.90;;;;;;5041258;28;20482;-72
2023/10/12 00:44:52;;;;;;;14.60;6.10;;;15.40;99.90;;;;;;5048112;28;20458;-70
2023/10/12 00:47:29;;;;;;;16.73;5.97;;;15.30;99.90;;;;;;5049361;28;20441;-71
2023/10/12 00:50:05;;;;;;;16.60;5.83;;;15.30;99.90;;;;;;5048086;28;20443;-70
2023/10/12 00:52:46;;;;;;;14.40;5.00;;;15.30;99.90;;;;;;5047730;28;20489;-70
2023/10/12 00:55:21;;;;;;;14.43;6.47;;;15.20;99.90;;;;;;5047376;28;20461;-71
2023/10/12 00:57:51;;;;;;;11.70;5.50;;;15.20;99.90;;;;;;5047706;28;20437;-70
2023/10/12 01:00:19;;;;;;;14.50;6.67;;;15.20;99.90;;;;;;5047923;28;20522;-70
2023/10/12 01:03:07;;;;;;;14.70;6.57;;;15.20;99.90;;;;;;5047284;28;20994;-70
2023/10/12 01:05:35;;;;;;;13.70;6.60;;;15.10;99.90;;;;;;5047671;28;20479;-70
2023/10/12 01:08:05;;;;;;;17.00;6.00;;;15.10;99.90;;;;;;5047630;28;20449;-70
2023/10/12 01:10:40;;;;;;;15.23;7.13;;;15.10;99.90;;;;;;5048165;28;20480;-70
2023/10/12 01:13:09;;;;;;;16.07;7.00;;;15.20;99.90;;;;;;5048177;28;20847;-71
2023/10/12 01:15:40;;;;;;;18.17;6.87;;;15.20;99.90;;;;;;5051645;28;20834;-71
2023/10/12 01:18:11;;;;;;;17.57;7.00;;;15.00;99.90;;;;;;5051681;28;20936;-70
2023/10/12 01:20:39;;;;;;;15.47;6.13;;;15.00;99.90;;;;;;5050974;28;20445;-70
2023/10/12 01:23:08;;;;;;;17.50;7.10;;;14.90;99.90;;;;;;5051219;28;20523;-71
2023/10/12 01:25:40;;;;;;;17.47;7.37;;;14.90;99.90;;;;;;5051591;28;20450;-71
2023/10/12 01:28:12;;;;;;;21.57;6.47;;;15.00;99.90;;;;;;5043373;28;20443;-70
2023/10/12 01:30:44;;;;;;;15.73;6.70;;;15.00;99.90;;;;;;5051081;28;20448;-70
2023/10/12 01:33:13;;;;;;;17.47;7.53;;;15.00;99.90;;;;;;5050725;28;20490;-69
2023/10/12 01:35:48;;;;;;;16.23;6.20;;;14.90;99.90;;;;;;5051163;28;21003;-71
2023/10/12 01:38:18;;;;;;;16.03;6.63;;;14.90;99.90;;;;;;5043751;28;20471;-71
2023/10/12 01:40:54;;;;;;;12.70;5.93;;;14.90;99.90;;;;;;5050483;28;20539;-70
2023/10/12 01:43:27;;;;;;;27.57;7.30;;;14.80;99.90;;;;;;5050872;28;20463;-70
2023/10/12 01:46:00;;;;;;;14.00;6.10;;;14.80;99.90;;;;;;5050985;28;20478;-71
2023/10/12 01:48:33;;;;;;;17.50;6.97;;;14.80;99.90;;;;;;5050766;28;20512;-70
2023/10/12 01:51:08;;;;;;;18.57;6.67;;;14.80;99.90;;;;;;5050119;28;20806;-71
2023/10/12 01:53:40;;;;;;;12.07;5.63;;;14.80;99.90;;;;;;5050567;28;20600;-70
2023/10/12 01:56:10;;;;;;;13.57;6.70;;;14.80;99.90;;;;;;5050576;28;20445;-71
2023/10/12 01:58:43;;;;;;;15.63;7.10;;;14.70;99.90;;;;;;5050715;28;20447;-71
2023/10/12 02:01:18;;;;;;;16.80;7.90;;;14.70;99.90;;;;;;5050163;28;20456;-68
2023/10/12 02:03:48;;;;;;;15.83;6.77;;;14.70;99.90;;;;;;5050056;28;20466;-70
2023/10/12 02:06:16;;;;;;;19.00;7.00;;;14.70;99.90;;;;;;5050422;28;20444;-71
2023/10/12 02:08:52;;;;;;;17.93;7.40;;;14.70;99.90;;;;;;5050229;28;20448;-70
2023/10/12 02:11:42;;;;;;;13.57;6.03;;;14.80;99.90;;;;;;5050032;28;20945;-70
2023/10/12 02:14:12;;;;;;;17.73;7.83;;;14.80;99.90;;;;;;5050402;28;20499;-70
2023/10/12 02:16:53;;;;;;;15.77;6.33;;;14.80;99.90;;;;;;5050517;28;20460;-70
2023/10/12 02:19:31;;;;;;;21.33;7.40;;;14.80;99.90;;;;;;5050695;28;20516;-70
2023/10/12 02:22:01;;;;;;;13.93;6.70;;;14.70;99.90;;;;;;5050066;28;20447;-70
2023/10/12 02:24:35;;;;;;;18.33;8.27;;;14.70;99.90;;;;;;5050526;28;20460;-70
2023/10/12 02:27:04;;;;;;;14.07;7.37;;;14.70;99.90;;;;;;5050434;28;20444;-71
2023/10/12 02:29:36;;;;;;;17.53;6.53;;;14.70;99.90;;;;;;5050726;28;20448;-71
2023/10/12 02:34:46;;;;;;;15.17;7.53;;;14.70;99.90;;;;;;5047500;28;21128;-72
2023/10/12 02:37:18;;;;;;;14.90;7.70;;;14.70;99.90;;;;;;5049942;28;20892;-72
2023/10/12 02:39:48;;;;;;;15.70;6.00;;;14.70;99.90;;;;;;5049512;28;20540;-71
2023/10/12 02:42:22;;;;;;;19.30;8.10;;;14.70;99.90;;;;;;5048897;28;20472;-70
2023/10/12 02:45:09;;;;;;;13.87;6.50;;;14.70;99.90;;;;;;5049434;28;21161;-72
2023/10/12 02:47:41;;;;;;;11.53;5.83;;;14.80;99.90;;;;;;5049841;28;20527;-71
2023/10/12 02:50:27;;;;;;;15.53;6.80;;;14.80;99.90;;;;;;5049561;28;20444;-69
2023/10/12 02:52:55;;;;;;;15.93;7.33;;;14.70;99.90;;;;;;5048908;28;20465;-71
2023/10/12 02:55:34;;;;;;;15.67;7.03;;;14.90;99.90;;;;;;5049439;28;20491;-71
2023/10/12 02:58:07;;;;;;;15.03;6.00;;;14.90;99.90;;;;;;5049401;28;20476;-70
2023/10/12 03:00:35;;;;;;;17.90;7.50;;;14.90;99.90;;;;;;5049109;28;20452;-70
2023/10/12 03:03:16;;;;;;;16.27;6.40;;;15.00;99.90;;;;;;5048180;28;20839;-70
2023/10/12 03:05:47;;;;;;;13.90;6.00;;;14.90;99.90;;;;;;5049560;28;20445;-70
2023/10/12 03:08:16;;;;;;;13.90;6.20;;;14.90;99.90;;;;;;5049643;28;20445;-71
2023/10/12 03:11:01;;;;;;;17.53;6.33;;;14.90;99.90;;;;;;5048788;28;20445;-70
2023/10/12 03:13:34;;;;;;;15.10;6.00;;;15.00;99.90;;;;;;5043427;28;20489;-70
2023/10/12 03:16:09;;;;;;;15.70;6.90;;;15.00;99.90;;;;;;5049224;28;20450;-70
2023/10/12 03:18:38;;;;;;;16.57;7.20;;;15.00;99.90;;;;;;5049240;28;20530;-71
2023/10/12 03:21:11;;;;;;;16.37;6.63;;;15.10;99.90;;;;;;5048439;28;20459;-70
2023/10/12 03:23:40;;;;;;;14.03;6.67;;;15.00;99.90;;;;;;5048795;28;20487;-72
2023/10/12 03:26:23;;;;;;;18.13;7.73;;;14.90;99.90;;;;;;5049010;28;20481;-70
2023/10/12 03:28:53;;;;;;;14.23;7.57;;;15.00;99.90;;;;;;5049087;28;20510;-70
2023/10/12 03:31:25;;;;;;;19.17;6.60;;;15.00;99.90;;;;;;5048399;28;21080;-70
2023/10/12 03:33:54;;;;;;;15.00;6.50;;;15.00;99.90;;;;;;5048490;28;20551;-70
2023/10/12 03:36:24;;;;;;;14.60;7.20;;;15.00;99.90;;;;;;5048809;28;20458;-71
2023/10/12 03:39:09;;;;;;;17.67;6.53;;;15.10;99.90;;;;;;5048754;28;20491;-70
2023/10/12 03:44:36;;;;;;;15.03;6.87;;;15.10;99.90;;;;;;5048338;28;20512;-71
2023/10/12 03:47:14;;;;;;;16.03;7.37;;;15.10;99.90;;;;;;5048774;28;20451;-70
2023/10/12 03:49:57;;;;;;;15.10;7.30;;;15.10;99.90;;;;;;5048689;28;20458;-70
2023/10/12 03:52:34;;;;;;;14.97;6.60;;;15.10;99.90;;;;;;5048179;28;20448;-70
2023/10/12 03:55:25;;;;;;;16.90;6.60;;;15.00;99.90;;;;;;5047915;28;20535;-71
2023/10/12 03:58:05;;;;;;;15.33;6.03;;;15.10;99.90;;;;;;5048602;28;20440;-71
2023/10/12 04:00:43;;;;;;;13.13;6.10;;;15.10;99.90;;;;;;5048452;28;20441;-72
2023/10/12 04:03:18;;;;;;;11.70;5.90;;;15.20;99.90;;;;;;5047957;28;20469;-71
2023/10/12 04:05:56;;;;;;;12.80;5.63;;;15.10;99.90;;;;;;5048593;28;20436;-71
2023/10/12 04:08:39;;;;;;;16.70;6.33;;;15.10;99.90;;;;;;5042092;28;20447;-70
2023/10/12 04:14:43;;;;;;;17.87;8.27;;;15.20;99.90;;;;;;5048423;28;20460;-70
2023/10/12 04:17:09;;;;;;;18.87;6.80;;;15.20;99.90;;;;;;5048066;28;20456;-70
2023/10/12 04:19:43;;;;;;;13.70;6.40;;;15.20;99.90;;;;;;5048432;28;20446;-70
2023/10/12 04:22:24;;;;;;;12.97;6.70;;;15.20;99.90;;;;;;5047913;28;20448;-69
2023/10/12 04:24:54;;;;;;;12.43;6.40;;;15.30;99.90;;;;;;5048102;28;21265;-70
2023/10/12 04:27:38;;;;;;;15.80;6.80;;;15.30;99.90;;;;;;5048425;28;20452;-70
2023/10/12 04:30:20;;;;;;;13.37;5.60;;;15.20;99.90;;;;;;5047904;28;20494;-70
2023/10/12 04:32:57;;;;;;;14.77;7.50;;;15.10;99.90;;;;;;5047550;28;20452;-71
2023/10/12 04:35:50;;;;;;;15.27;5.93;;;15.20;99.90;;;;;;5048158;28;20813;-70
2023/10/12 04:38:28;;;;;;;12.87;6.73;;;15.10;99.90;;;;;;5048075;28;20473;-68
2023/10/12 04:41:26;;;;;;;18.57;6.17;;;15.00;99.90;;;;;;5047829;28;20438;-70
2023/10/12 04:44:02;;;;;;;16.70;7.13;;;15.00;99.90;;;;;;5047803;28;20539;-71
2023/10/12 04:46:39;;;;;;;13.83;6.37;;;15.00;99.90;;;;;;5047235;28;20453;-71
2023/10/12 04:52:08;;;;;;;16.17;7.00;;;14.80;99.90;;;;;;5051327;28;20537;-73
2023/10/12 04:54:49;;;;;;;13.73;6.23;;;14.60;99.90;;;;;;5052779;28;20871;-73
2023/10/12 04:57:17;;;;;;;14.00;6.20;;;14.60;99.90;;;;;;5044030;28;20942;-71
2023/10/12 04:59:50;;;;;;;16.07;6.83;;;14.50;99.90;;;;;;5045616;28;20441;-73
2023/10/12 05:02:28;;;;;;;19.63;7.17;;;14.50;99.90;;;;;;5039096;28;20471;-69
2023/10/12 05:07:55;;;;;;;16.63;7.50;;;14.50;99.90;;;;;;5049793;28;20957;-70
2023/10/12 05:10:27;;;;;;;14.83;6.67;;;14.60;99.90;;;;;;5050942;28;20451;-72
2023/10/12 05:12:57;;;;;;;20.97;7.37;;;14.60;99.90;;;;;;5050060;28;20470;-72
2023/10/12 05:15:36;;;;;;;18.80;7.90;;;14.60;99.90;;;;;;5042525;28;20973;-71
2023/10/12 05:18:06;;;;;;;19.23;8.03;;;14.60;99.90;;;;;;5042804;28;20857;-68
2023/10/12 05:20:35;;;;;;;14.90;8.63;;;14.60;99.90;;;;;;5045068;28;20509;-68
2023/10/12 05:23:04;;;;;;;17.63;7.60;;;14.60;99.90;;;;;;5049805;28;20521;-74
2023/10/12 05:25:47;;;;;;;16.30;6.60;;;14.60;99.90;;;;;;5051165;28;20479;-73
2023/10/12 05:28:17;;;;;;;13.87;7.10;;;14.70;99.90;;;;;;5050735;28;20451;-72
2023/10/12 05:30:50;;;;;;;16.30;7.03;;;14.80;99.90;;;;;;5050266;28;20457;-71
2023/10/12 05:36:08;;;;;;;19.23;7.27;;;14.80;99.90;;;;;;5040542;28;20846;-71
2023/10/12 05:38:38;;;;;;;14.90;7.10;;;14.60;99.90;;;;;;5051132;28;20456;-71
2023/10/12 05:41:08;;;;;;;15.80;7.90;;;14.60;99.90;;;;;;5050441;28;20532;-71
2023/10/12 05:43:38;;;;;;;15.23;7.50;;;14.50;99.90;;;;;;5050952;28;20460;-70
2023/10/12 05:46:13;;;;;;;15.30;7.93;;;14.50;99.90;;;;;;5050656;28;20855;-69
2023/10/12 05:48:46;;;;;;;17.67;7.17;;;14.50;99.90;;;;;;5050911;28;20531;-70
2023/10/12 05:51:18;;;;;;;17.97;6.90;;;14.50;99.90;;;;;;5050457;28;20468;-71
2023/10/12 05:53:48;;;;;;;15.03;6.90;;;14.50;99.90;;;;;;5046581;28;20490;-72
2023/10/12 05:56:18;;;;;;;15.17;6.93;;;14.60;99.90;;;;;;5045533;28;20524;-72
2023/10/12 05:58:47;;;;;;;16.73;6.77;;;14.50;99.90;;;;;;5050677;28;20469;-72
2023/10/12 06:01:31;;;;;;;17.70;7.63;;;14.70;99.90;;;;;;5050635;28;20441;-72
2023/10/12 06:04:14;;;;;;;16.20;6.60;;;14.70;99.90;;;;;;5050778;28;20550;-71
2023/10/12 06:06:43;;;;;;;17.23;6.83;;;14.80;99.90;;;;;;5050916;28;20483;-69
2023/10/12 06:09:20;;;;;;;18.20;6.90;;;14.80;99.90;;;;;;5050773;28;20461;-68
2023/10/12 06:11:49;;;;;;;16.10;7.80;;;14.80;99.90;;;;;;5050435;28;20442;-71
2023/10/12 06:14:20;;;;;;;20.83;6.93;;;14.90;99.90;;;;;;5050497;28;20473;-68
2023/10/12 06:16:54;;;;;;;15.20;7.17;;;15.00;99.90;;;;;;5050861;28;21093;-69
2023/10/12 06:19:26;;;;;;;14.80;6.60;;;15.20;99.90;;;;;;5050447;28;20816;-71
2023/10/12 06:21:58;;;;;;;18.27;7.30;;;15.30;99.90;;;;;;5049922;28;20435;-73
2023/10/12 06:24:34;;;;;;;17.93;6.70;;;15.40;99.90;;;;;;5050351;28;20977;-71
2023/10/12 06:27:22;;;;;;;18.40;7.07;;;15.50;99.90;;;;;;5050137;28;20443;-72
2023/10/12 06:29:52;;;;;;;13.00;6.43;;;15.60;99.90;;;;;;5050319;28;20546;-70
2023/10/12 06:32:31;;;;;;;14.67;7.67;;;15.70;99.90;;;;;;5049822;28;20454;-71
2023/10/12 06:35:13;;;;;;;15.73;6.90;;;15.80;99.90;;;;;;5050196;28;20439;-70
2023/10/12 06:37:49;;;;;;;11.40;5.90;;;16.00;99.90;;;;;;5050363;28;20450;-71
2023/10/12 06:40:37;;;;;;;16.37;7.70;;;16.10;99.90;;;;;;5050090;28;20439;-70
2023/10/12 06:45:56;;;;;;;17.33;7.60;;;16.20;99.90;;;;;;5049666;28;21028;-71
2023/10/12 06:51:20;;;;;;;22.83;6.93;;;16.50;99.90;;;;;;5106411;27;20573;-64
2023/10/12 06:53:52;;;;;;;16.60;7.93;;;16.70;99.90;;;;;;5106611;28;20801;-64
2023/10/12 06:56:26;;;;;;;21.90;7.73;;;16.80;99.90;;;;;;5106742;28;20484;-64
2023/10/12 06:59:08;;;;;;;18.00;7.20;;;16.90;99.90;;;;;;5085909;28;20441;-64
2023/10/12 07:01:43;;;;;;;18.00;7.47;;;17.10;99.90;;;;;;5085802;28;20438;-64
2023/10/12 07:04:12;;;;;;;17.73;7.70;;;17.20;99.90;;;;;;5085085;28;20470;-64
2023/10/12 07:06:56;;;;;;;18.10;7.13;;;17.30;99.90;;;;;;5074709;28;20447;-66
2023/10/12 07:09:37;;;;;;;17.63;8.20;;;17.40;99.90;;;;;;5078056;28;21023;-66
2023/10/12 07:12:07;;;;;;;19.43;7.50;;;17.50;99.90;;;;;;5077433;28;20466;-66
2023/10/12 07:14:38;;;;;;;19.50;7.70;;;17.70;99.90;;;;;;5078374;28;20437;-66
2023/10/12 07:17:08;;;;;;;13.67;6.57;;;17.80;99.90;;;;;;5076342;28;20483;-66
2023/10/12 07:19:40;;;;;;;16.10;7.07;;;18.00;99.90;;;;;;5075311;28;20839;-66
2023/10/12 07:22:15;;;;;;;15.57;7.90;;;18.00;99.90;;;;;;5067088;28;20866;-65
2023/10/12 07:24:43;;;;;;;16.37;6.77;;;18.20;99.90;;;;;;5063499;28;20501;-67
2023/10/12 07:27:17;;;;;;;16.80;7.90;;;18.40;99.90;;;;;;5063551;28;20489;-66
2023/10/12 07:30:00;;;;;;;15.47;6.80;;;18.50;99.90;;;;;;5063825;28;20488;-67
2023/10/12 07:32:38;;;;;;;17.20;7.13;;;18.60;99.90;;;;;;5077654;28;20968;-66
2023/10/12 07:35:11;;;;;;;16.73;7.23;;;18.70;99.90;;;;;;5078431;28;20497;-66
2023/10/12 07:37:42;;;;;;;17.13;6.93;;;18.80;99.90;;;;;;5077142;28;20450;-66
2023/10/12 07:40:22;;;;;;;13.53;6.77;;;18.90;99.90;;;;;;5077159;28;21130;-66
2023/10/12 07:42:51;;;;;;;15.03;6.53;;;18.80;99.90;;;;;;5061758;28;20435;-67
2023/10/12 07:45:20;;;;;;;17.97;7.27;;;18.80;99.90;;;;;;5062180;28;21094;-66
2023/10/12 07:47:58;;;;;;;15.73;7.63;;;18.90;99.90;;;;;;5068295;28;20466;-66
2023/10/12 07:50:30;;;;;;;13.73;5.90;;;18.90;99.90;;;;;;5063965;28;20485;-65
2023/10/12 07:53:08;;;;;;;14.77;6.70;;;18.90;99.90;;;;;;5067476;28;20493;-72
2023/10/12 07:55:41;;;;;;;13.87;6.73;;;18.90;99.90;;;;;;5068294;28;20561;-64
2023/10/12 07:58:12;;;;;;;13.20;5.70;;;19.00;99.90;;;;;;5063135;28;20463;-63
2023/10/12 08:00:51;;;;;;;14.30;6.67;;;19.10;99.90;;;;;;5060974;28;20432;-64
2023/10/12 08:03:19;;;;;;;14.68;6.28;;;19.00;99.90;;;;;;5050858;28;20442;-67
2023/10/12 08:08:37;;;;;;;14.30;6.27;;;18.90;99.90;;;;;;5049462;28;20461;-64
2023/10/12 08:14:39;;;;;;;16.53;6.30;;;18.90;99.90;;;;;;5003514;28;20496;-66
2023/10/12 08:20:12;;;;;;;16.23;6.60;;;18.90;99.90;;;;;;5040526;28;20527;-65
2023/10/12 08:22:41;;;;;;;18.10;7.00;;;18.90;99.90;;;;;;5047943;28;20493;-66
2023/10/12 08:25:11;;;;;;;17.70;6.80;;;18.90;99.90;;;;;;5050825;28;20442;-66
2023/10/12 08:27:52;;;;;;;17.40;7.07;;;18.90;99.90;;;;;;5051681;28;20809;-66
2023/10/12 08:30:23;;;;;;;18.87;7.33;;;19.00;99.90;;;;;;5050386;28;21021;-67
2023/10/12 08:32:59;;;;;;;17.90;6.17;;;19.00;99.90;;;;;;5047944;28;20431;-67
2023/10/12 08:35:39;;;;;;;13.00;5.80;;;19.00;99.90;;;;;;5052290;28;20432;-67
2023/10/12 08:38:12;;;;;;;20.90;7.10;;;19.00;99.90;;;;;;5048529;28;20447;-66
2023/10/12 08:43:43;;;;;;;20.20;7.67;;;19.10;99.90;;;;;;5012662;28;20441;-64
2023/10/12 08:46:19;;;;;;;15.00;6.57;;;19.20;99.90;;;;;;5046937;28;20452;-66
2023/10/12 08:48:52;;;;;;;14.40;7.40;;;19.40;99.90;;;;;;5044930;28;20463;-66
2023/10/12 08:51:30;;;;;;;14.10;6.70;;;19.30;99.90;;;;;;5047469;28;20563;-65
2023/10/12 08:54:01;;;;;;;18.40;6.83;;;19.40;99.90;;;;;;5047191;28;20523;-66
2023/10/12 08:56:40;;;;;;;12.27;5.90;;;19.50;99.90;;;;;;5051737;28;20429;-65
2023/10/12 08:59:10;;;;;;;13.47;6.37;;;19.60;99.90;;;;;;5047028;28;21003;-64
2023/10/12 09:01:42;;;;;;;17.70;6.70;;;19.80;99.90;;;;;;5045977;28;20448;-64
2023/10/12 09:04:13;;;;;;;14.13;6.83;;;19.80;99.90;;;;;;5049214;28;20456;-66
2023/10/12 09:06:57;;;;;;;15.20;6.87;;;19.80;99.90;;;;;;5052061;28;20458;-66
2023/10/12 09:12:19;;;;;;;16.63;6.00;;;19.90;99.90;;;;;;5047195;28;21246;-63
2023/10/12 09:14:47;;;;;;;19.03;7.30;;;19.90;99.90;;;;;;5048229;28;20463;-66
2023/10/12 09:17:30;;;;;;;14.33;6.60;;;20.00;99.90;;;;;;5046896;28;20518;-65
2023/10/12 09:22:45;;;;;;;16.53;7.23;;;20.10;99.90;;;;;;5045347;28;20444;-66
2023/10/12 09:25:34;;;;;;;15.20;6.70;;;20.10;99.90;;;;;;5048991;28;21051;-66
2023/10/12 09:28:13;;;;;;;16.83;7.47;;;20.20;99.90;;;;;;5045794;28;20535;-65
2023/10/12 09:30:45;;;;;;;18.07;7.23;;;20.40;99.90;;;;;;5048169;28;20475;-66
2023/10/12 09:36:00;;;;;;;15.20;7.83;;;20.60;99.90;;;;;;5046341;28;20439;-65
2023/10/12 09:38:30;;;;;;;11.70;5.97;;;20.80;99.90;;;;;;5048302;28;20514;-64
2023/10/12 09:41:01;;;;;;;13.77;5.63;;;20.90;99.90;;;;;;5046030;28;20533;-66
2023/10/12 09:43:38;;;;;;;15.10;5.77;;;20.90;99.90;;;;;;5046782;28;20873;-66
2023/10/12 09:46:09;;;;;;;14.07;5.90;;;21.00;99.90;;;;;;5057503;28;20490;-65
2023/10/12 09:48:40;;;;;;;13.43;5.60;;;21.10;99.90;;;;;;5062833;28;20968;-66
2023/10/12 09:51:15;;;;;;;18.40;6.57;;;21.10;99.90;;;;;;5062174;28;20486;-66
2023/10/12 09:53:57;;;;;;;16.47;6.40;;;21.20;99.90;;;;;;5062643;28;20526;-66
2023/10/12 09:56:34;;;;;;;14.10;6.37;;;21.40;99.90;;;;;;5061206;28;20431;-71
2023/10/12 09:59:13;;;;;;;12.70;6.00;;;21.50;99.90;;;;;;5063119;28;20518;-66
2023/10/12 10:01:51;;;;;;;12.20;5.53;;;21.60;99.90;;;;;;5062109;28;20431;-66
2023/10/12 10:04:28;;;;;;;13.87;6.10;;;21.70;99.90;;;;;;5062892;28;20828;-64
2023/10/12 10:07:18;;;;;;;13.37;5.47;;;21.80;99.90;;;;;;5063491;28;20490;-66
2023/10/12 10:09:49;;;;;;;13.43;5.70;;;21.80;99.90;;;;;;5063131;28;20435;-66
2023/10/12 10:12:20;;;;;;;14.03;6.73;;;22.00;99.90;;;;;;5063565;28;20578;-65
2023/10/12 10:14:54;;;;;;;13.80;5.57;;;22.00;99.90;;;;;;5065789;28;20827;-66
2023/10/12 10:17:27;;;;;;;13.13;6.37;;;22.20;99.90;;;;;;5068020;28;20459;-66
2023/10/12 10:20:19;;;;;;;12.80;6.43;;;22.20;99.90;;;;;;5069234;28;20838;-66
2023/10/12 10:22:56;;;;;;;13.37;6.00;;;22.30;99.90;;;;;;5068782;28;20442;-66
2023/10/12 10:25:27;;;;;;;12.20;6.00;;;22.30;99.90;;;;;;5060805;28;20446;-66
2023/10/12 10:27:56;;;;;;;13.37;5.53;;;22.40;99.00;;;;;;5069014;28;20992;-66
2023/10/12 10:30:28;;;;;;;14.20;6.00;;;22.40;99.90;;;;;;5068985;28;20475;-66
2023/10/12 10:33:12;;;;;;;15.10;5.97;;;22.40;99.90;;;;;;5068433;28;20491;-65
2023/10/12 10:36:01;;;;;;;13.50;5.43;;;22.50;99.80;;;;;;5069416;28;20449;-66
2023/10/12 10:38:33;;;;;;;13.73;5.93;;;22.60;98.70;;;;;;5068957;28;20459;-66
2023/10/12 10:41:08;;;;;;;13.83;5.50;;;22.70;99.20;;;;;;5068670;28;20478;-66
2023/10/12 10:43:38;;;;;;;15.17;6.50;;;22.80;97.70;;;;;;5069095;28;20901;-66
2023/10/12 10:46:10;;;;;;;17.13;5.70;;;22.90;96.80;;;;;;5069262;28;20534;-66
2023/10/12 10:48:39;;;;;;;17.73;6.03;;;22.80;97.10;;;;;;5069047;28;20462;-66
2023/10/12 10:51:18;;;;;;;12.63;5.83;;;22.80;98.10;;;;;;5006030;28;20493;-65
2023/10/12 10:53:52;;;;;;;13.70;6.17;;;22.70;97.50;;;;;;5006401;28;20724;-66
2023/10/12 10:56:34;;;;;;;11.80;5.60;;;22.60;96.90;;;;;;5006184;28;20980;-66
2023/10/12 10:59:02;;;;;;;12.07;6.33;;;22.60;97.30;;;;;;5006181;28;20492;-66
2023/10/12 11:01:32;;;;;;;16.50;6.73;;;22.60;97.70;;;;;;5006121;28;20714;-67
2023/10/12 11:04:01;;;;;;;14.10;5.93;;;22.70;96.70;;;;;;5006374;28;20862;-68
2023/10/12 11:06:31;;;;;;;16.57;6.33;;;22.70;97.80;;;;;;5006629;28;20837;-68
2023/10/12 11:09:06;;;;;;;10.30;5.43;;;22.70;97.30;;;;;;5019261;28;20444;-67
2023/10/12 11:11:44;;;;;;;12.13;5.97;;;22.60;97.60;;;;;;5061196;28;20486;-66
2023/10/12 11:14:18;;;;;;;12.67;6.13;;;22.70;97.60;;;;;;5068492;28;20518;-67
2023/10/12 11:16:50;;;;;;;13.63;6.30;;;22.70;97.10;;;;;;5067567;28;20458;-67
2023/10/12 11:19:23;;;;;;;12.60;5.90;;;22.70;96.20;;;;;;5068631;28;20444;-67
2023/10/12 11:21:51;;;;;;;13.00;5.80;;;22.70;95.50;;;;;;5068457;28;20439;-66
2023/10/12 11:24:22;;;;;;;15.93;6.07;;;22.60;95.60;;;;;;5068347;28;20928;-67
2023/10/12 11:26:52;;;;;;;12.50;6.00;;;22.60;96.30;;;;;;5068356;28;21088;-67
2023/10/12 11:29:20;;;;;;;15.70;6.50;;;22.70;95.20;;;;;;5068886;28;20884;-66
2023/10/12 11:32:08;;;;;;;14.87;6.67;;;22.80;94.80;;;;;;5068249;28;20851;-68
2023/10/12 11:34:38;;;;;;;13.30;6.50;;;23.00;94.70;;;;;;5068771;28;20818;-68
2023/10/12 11:37:09;;;;;;;12.13;5.73;;;22.90;94.40;;;;;;5071042;28;20462;-67
2023/10/12 11:39:43;;;;;;;17.10;6.70;;;23.00;94.60;;;;;;5072223;28;20455;-67
2023/10/12 11:42:13;;;;;;;12.90;6.30;;;22.90;95.60;;;;;;5071788;28;20496;-67
2023/10/12 11:44:45;;;;;;;16.63;9.13;;;22.90;97.00;;;;;;5072033;28;20535;-68
2023/10/12 11:47:39;;;;;;;15.93;7.10;;;23.00;95.40;;;;;;5072057;28;20499;-67
2023/10/12 11:50:13;;;;;;;15.73;6.90;;;23.10;94.50;;;;;;5071960;28;20820;-66
2023/10/12 11:52:46;;;;;;;13.50;6.17;;;23.10;94.00;;;;;;5071478;28;20483;-67
2023/10/12 11:55:19;;;;;;;17.97;7.30;;;23.20;94.20;;;;;;5071948;28;20471;-67
2023/10/12 11:57:53;;;;;;;15.53;7.20;;;23.10;96.10;;;;;;5071943;28;20463;-65
2023/10/12 12:00:26;;;;;;;17.10;6.80;;;22.80;97.00;;;;;;5071627;28;20442;-66
2023/10/12 12:02:59;;;;;;;18.90;7.53;;;22.50;97.70;;;;;;5071780;28;20538;-67
2023/10/12 12:05:30;;;;;;;12.93;6.47;;;22.20;98.80;;;;;;5071831;28;20998;-65
2023/10/12 12:08:05;;;;;;;16.03;6.07;;;22.10;99.50;;;;;;5071782;28;20830;-66
2023/10/12 12:10:44;;;;;;;17.87;7.90;;;22.00;98.90;;;;;;5071692;28;21086;-68
2023/10/12 12:13:15;;;;;;;14.10;6.70;;;21.80;99.40;;;;;;5071522;28;20486;-68
2023/10/12 12:15:44;;;;;;;17.87;6.57;;;21.60;99.90;;;;;;5071891;28;20450;-66
2023/10/12 12:18:18;;;;;;;18.10;6.73;;;21.40;99.90;;;;;;5071656;28;20467;-66
2023/10/12 12:20:48;;;;;;;19.90;6.60;;;21.40;99.90;;;;;;5071163;28;20446;-67
2023/10/12 12:23:16;;;;;;;16.00;6.60;;;21.50;99.90;;;;;;5071360;28;20527;-67
2023/10/12 12:25:44;;;;;;;16.73;6.60;;;21.70;99.90;;;;;;5071850;28;20435;-66
2023/10/12 12:28:14;;;;;;;38.87;11.73;;;21.70;99.90;;;;;;5071317;28;20466;-67
2023/10/12 12:30:55;;;;;;;20.53;7.20;;;21.70;99.90;;;;;;5071172;28;20558;-64
2023/10/12 12:33:28;;;;;;;24.20;9.00;;;21.70;99.90;;;;;;5071077;28;20478;-65
2023/10/12 12:36:00;;;;;;;28.27;8.70;;;21.70;99.90;;;;;;5071121;28;21139;-66
2023/10/12 12:38:43;;;;;;;30.20;11.57;;;21.80;99.90;;;;;;5070979;28;20470;-67
2023/10/12 12:41:19;;;;;;;18.60;8.20;;;21.90;99.90;;;;;;5070910;28;20444;-66
2023/10/12 12:43:48;;;;;;;33.07;9.63;;;22.10;99.90;;;;;;5071135;28;20474;-67
2023/10/12 12:46:17;;;;;;;20.47;7.47;;;22.20;99.90;;;;;;5071431;28;20447;-67
2023/10/12 12:48:50;;;;;;;32.43;11.87;;;22.30;99.90;;;;;;5071185;28;20463;-67
2023/10/12 12:51:18;;;;;;;17.80;7.47;;;22.50;99.90;;;;;;5070367;28;20450;-66
2023/10/12 12:53:48;;;;;;;18.10;7.33;;;22.60;99.90;;;;;;5075402;22;21185;-70
2023/10/12 12:56:17;;;;;;;17.93;7.40;;;22.70;99.90;;;;;;5049966;28;20444;-71
2023/10/12 12:58:47;;;;;;;18.60;6.90;;;22.70;99.90;;;;;;5050347;28;20444;-70
2023/10/12 13:01:16;;;;;;;15.30;6.90;;;22.80;99.90;;;;;;5049822;28;20444;-71
2023/10/12 13:03:46;;;;;;;14.70;6.70;;;22.80;99.90;;;;;;5050420;28;20487;-72
2023/10/12 13:06:16;;;;;;;16.97;7.10;;;22.80;99.90;;;;;;5050468;28;20872;-72
2023/10/12 13:08:44;;;;;;;13.87;6.00;;;22.70;99.90;;;;;;5050459;28;20436;-71
2023/10/12 13:11:17;;;;;;;25.07;9.00;;;22.70;99.90;;;;;;5049673;28;20468;-71
2023/10/12 13:13:45;;;;;;;17.80;6.33;;;22.60;99.90;;;;;;5050627;28;21060;-71
2023/10/12 13:16:13;;;;;;;13.07;5.40;;;22.60;99.90;;;;;;5050200;28;20474;-71
2023/10/12 13:18:46;;;;;;;13.27;6.60;;;22.60;99.90;;;;;;5050315;28;20472;-71
2023/10/12 13:21:16;;;;;;;13.57;5.87;;;22.60;99.90;;;;;;5049695;28;20997;-70
2023/10/12 13:23:45;;;;;;;12.30;5.83;;;22.70;99.90;;;;;;5049815;28;20541;-70
2023/10/12 13:26:19;;;;;;;14.20;6.13;;;22.80;99.90;;;;;;5050118;28;20470;-72
2023/10/12 13:28:47;;;;;;;14.83;6.17;;;22.90;99.90;;;;;;5050037;28;20447;-70
2023/10/12 13:31:16;;;;;;;16.27;6.37;;;23.10;99.90;;;;;;5049331;28;20583;-70
2023/10/12 13:33:44;;;;;;;12.40;5.70;;;23.30;99.90;;;;;;5049611;28;20487;-70
2023/10/12 13:36:12;;;;;;;16.07;6.60;;;23.40;99.90;;;;;;5049509;28;20532;-71
2023/10/12 13:38:41;;;;;;;16.23;7.30;;;23.40;99.90;;;;;;5049830;28;20539;-71
2023/10/12 13:41:11;;;;;;;15.70;6.40;;;23.40;99.90;;;;;;5049460;28;20437;-71
2023/10/12 13:43:40;;;;;;;14.70;6.60;;;23.50;99.90;;;;;;5049504;28;20487;-71
2023/10/12 13:46:08;;;;;;;15.20;6.77;;;23.50;99.90;;;;;;5049597;28;21140;-70
2023/10/12 13:48:38;;;;;;;16.97;7.10;;;23.50;99.90;;;;;;5049220;28;20946;-71
2023/10/12 13:51:12;;;;;;;19.20;8.70;;;23.60;99.90;;;;;;5048887;28;20941;-71
2023/10/12 13:53:45;;;;;;;23.83;11.97;;;23.60;99.90;;;;;;5049018;28;20518;-70